createdAt,value
2019-03-16T00:09:35.303Z,6.05
2019-03-16T00:19:37.657Z,7.80
2019-03-16T00:29:39.636Z,5.50
2019-03-16T00:39:41.591Z,4.03
2019-03-16T00:49:43.590Z,3.55
2019-03-16T00:59:45.594Z,3.35
2019-03-16T01:09:47.933Z,3.33
2019-03-16T01:19:50.134Z,3.20
2019-03-16T01:29:52.271Z,3.87
2019-03-16T01:39:54.398Z,3.15
2019-03-16T01:49:56.650Z,3.80
2019-03-16T01:59:59.054Z,3.57
2019-03-16T02:10:01.058Z,3.30
2019-03-16T02:20:03.975Z,3.17
2019-03-16T02:30:07.860Z,2.67
2019-03-16T02:40:09.890Z,3.35
2019-03-16T02:50:12.714Z,2.98
2019-03-16T03:00:14.715Z,4.03
2019-03-16T03:10:18.817Z,8.13
2019-03-16T03:20:21.182Z,4.87
2019-03-16T03:30:23.144Z,3.33
2019-03-16T03:40:25.052Z,2.85
2019-03-16T03:50:27.112Z,3.52
2019-03-16T04:00:29.235Z,3.50
2019-03-16T04:10:31.239Z,3.30
2019-03-16T04:20:34.326Z,4.20
2019-03-16T04:40:37.788Z,3.58
2019-03-16T04:50:40.468Z,4.03
2019-03-16T05:00:42.850Z,3.60
2019-03-16T05:10:45.266Z,4.03
2019-03-16T05:20:48.215Z,2.83
2019-03-16T05:30:51.470Z,3.27
2019-03-16T05:40:53.678Z,4.08
2019-03-16T05:50:57.508Z,3.17
2019-03-16T06:00:59.487Z,2.62
2019-03-16T06:11:02.599Z,2.90
2019-03-16T06:31:06.500Z,3.22
2019-03-16T06:41:08.744Z,3.22
2019-03-16T06:51:11.365Z,4.93
2019-03-16T07:01:13.289Z,4.50
2019-03-16T07:11:16.191Z,3.02
2019-03-16T07:21:18.966Z,1.70
2019-03-16T07:31:20.930Z,1.20
2019-03-16T07:41:22.951Z,1.27
2019-03-16T07:51:24.933Z,1.15
2019-03-16T08:01:26.990Z,0.60
2019-03-16T08:11:29.100Z,0.80
2019-03-16T08:21:31.376Z,1.20
2019-03-16T08:31:33.707Z,0.60
2019-03-16T08:41:37.214Z,0.97
2019-03-16T08:51:40.485Z,1.32
2019-03-16T09:01:42.835Z,1.52
2019-03-16T09:11:45.463Z,1.73
2019-03-16T09:21:48.439Z,1.67
2019-03-16T09:41:54.397Z,1.87
2019-03-16T09:51:56.442Z,1.70
2019-03-16T10:01:58.715Z,1.40
2019-03-16T10:12:00.665Z,1.00
2019-03-16T10:22:02.819Z,1.12
2019-03-16T10:32:05.022Z,1.10
2019-03-16T10:42:07.178Z,2.50
2019-03-16T10:52:09.939Z,2.50
2019-03-16T11:02:13.211Z,6.33
2019-03-16T11:12:15.145Z,4.37
2019-03-16T11:22:18.368Z,5.07
2019-03-16T11:32:20.349Z,2.92
2019-03-16T11:42:22.995Z,4.20
2019-03-16T11:52:26.346Z,2.27
2019-03-16T12:02:28.285Z,1.95
2019-03-16T12:12:30.277Z,1.80
2019-03-16T12:22:32.896Z,1.00
2019-03-16T12:32:34.842Z,0.95
2019-03-16T12:42:38.183Z,0.98
2019-03-16T12:52:40.449Z,1.10
2019-03-16T13:02:42.547Z,0.90
2019-03-16T13:12:44.483Z,0.87
2019-03-16T13:23:05.897Z,0.82
2019-03-16T13:33:08.012Z,1.20
2019-03-16T13:43:10.044Z,1.30
2019-03-16T13:53:12.675Z,1.10
2019-03-16T14:03:14.994Z,1.00
2019-03-16T14:13:17.261Z,1.30
2019-03-16T14:23:19.771Z,7.67
2019-03-16T14:33:21.758Z,2.50
2019-03-16T14:43:23.707Z,2.42
2019-03-16T14:53:26.046Z,0.95
2019-03-16T15:03:28.234Z,2.77
2019-03-16T15:13:31.751Z,2.80
2019-03-16T15:23:36.131Z,1.47
2019-03-16T15:33:38.774Z,1.10
2019-03-16T15:43:41.065Z,1.40
2019-03-16T15:53:43.153Z,1.17
2019-03-16T16:03:45.310Z,1.30
2019-03-16T16:13:49.126Z,1.50
2019-03-16T16:23:51.596Z,1.37
2019-03-16T16:33:53.800Z,1.53
2019-03-16T16:43:56.032Z,1.50
2019-03-16T16:53:59.442Z,1.80
2019-03-16T17:04:01.574Z,1.10
2019-03-16T17:14:03.998Z,1.13
2019-03-16T17:24:07.518Z,1.03
2019-03-16T17:34:10.614Z,1.45
2019-03-16T17:44:12.742Z,1.47
2019-03-16T17:54:14.748Z,1.87
2019-03-16T18:04:16.674Z,1.80
2019-03-16T18:14:19.334Z,2.00
2019-03-16T18:24:21.649Z,2.35
2019-03-16T18:34:23.615Z,6.77
2019-03-16T18:44:25.617Z,4.83
2019-03-16T18:54:27.757Z,5.83
2019-03-16T19:04:30.337Z,4.60
2019-03-16T19:14:32.327Z,9.50
2019-03-16T19:24:34.304Z,6.62
2019-03-16T19:34:36.583Z,6.12
2019-03-16T19:44:38.593Z,3.37
2019-03-16T19:54:40.835Z,4.00
2019-03-16T20:04:42.799Z,3.23
2019-03-16T20:14:44.786Z,3.02
2019-03-16T20:24:47.021Z,3.37
2019-03-16T20:34:49.016Z,2.90
2019-03-16T20:44:51.031Z,3.08
2019-03-16T20:54:53.219Z,3.30
2019-03-16T21:04:55.368Z,2.67
2019-03-16T21:14:58.204Z,2.47
2019-03-16T21:25:00.487Z,3.00
2019-03-16T21:35:02.901Z,2.50
2019-03-16T21:45:06.527Z,2.80
2019-03-16T21:55:10.362Z,5.55
2019-03-16T22:05:12.671Z,21.10
2019-03-16T22:15:15.062Z,15.40
2019-03-16T22:25:17.005Z,2.07
2019-03-16T22:35:19.312Z,1.95
2019-03-16T22:45:21.544Z,1.50
2019-03-16T22:55:23.538Z,1.53
2019-03-16T23:05:26.775Z,1.75
2019-03-16T23:15:28.735Z,1.60
2019-03-16T23:25:30.718Z,2.00
2019-03-16T23:35:33.730Z,1.80
2019-03-16T23:55:37.969Z,2.72
